sensor_id;sensor_type;location;lat;lon;timestamp;temperature;humidity
25985;DHT22;40000;53.848;10.658;2022-08-05T00:04:27;18.40;99.90
25985;DHT22;40000;53.848;10.658;2022-08-05T00:09:28;18.40;99.90
25985;DHT22;40000;53.848;10.658;2022-08-05T00:14:29;18.40;99.90
25985;DHT22;40000;53.848;10.658;2022-08-05T00:19:30;18.40;99.90
25985;DHT22;40000;53.848;10.658;2022-08-05T00:24:30;18.40;99.90
25985;DHT22;40000;53.848;10.658;2022-08-05T00:29:31;18.40;99.90
25985;DHT22;40000;53.848;10.658;2022-08-05T00:34:32;18.40;99.90
25985;DHT22;40000;53.848;10.658;2022-08-05T00:39:33;18.50;99.90
25985;DHT22;40000;53.848;10.658;2022-08-05T00:44:34;18.50;99.90
25985;DHT22;40000;53.848;10.658;2022-08-05T00:49:34;18.60;99.90
25985;DHT22;40000;53.848;10.658;2022-08-05T00:54:35;18.60;99.90
25985;DHT22;40000;53.848;10.658;2022-08-05T00:59:36;18.60;99.90
25985;DHT22;40000;53.848;10.658;2022-08-05T01:04:37;18.50;99.90
25985;DHT22;40000;53.848;10.658;2022-08-05T01:09:37;18.50;99.90
25985;DHT22;40000;53.848;10.658;2022-08-05T01:21:03;18.40;99.90
25985;DHT22;40000;53.848;10.658;2022-08-05T01:31:48;18.30;99.90
25985;DHT22;40000;53.848;10.658;2022-08-05T01:37:03;18.20;99.90
25985;DHT22;40000;53.848;10.658;2022-08-05T01:42:09;18.10;99.90
25985;DHT22;40000;53.848;10.658;2022-08-05T01:47:17;18.00;99.90
25985;DHT22;40000;53.848;10.658;2022-08-05T01:52:20;18.00;99.90
25985;DHT22;40000;53.848;10.658;2022-08-05T01:57:32;17.90;99.90
25985;DHT22;40000;53.848;10.658;2022-08-05T02:02:40;17.90;99.90
25985;DHT22;40000;53.848;10.658;2022-08-05T02:07:45;17.80;99.90
25985;DHT22;40000;53.848;10.658;2022-08-05T02:12:53;17.70;99.90
25985;DHT22;40000;53.848;10.658;2022-08-05T02:18:05;17.70;99.90
25985;DHT22;40000;53.848;10.658;2022-08-05T02:23:09;17.70;99.90
25985;DHT22;40000;53.848;10.658;2022-08-05T02:28:12;17.70;99.90
25985;DHT22;40000;53.848;10.658;2022-08-05T02:33:15;17.70;99.90
25985;DHT22;40000;53.848;10.658;2022-08-05T02:38:17;17.70;99.90
25985;DHT22;40000;53.848;10.658;2022-08-05T02:43:19;17.70;99.90
25985;DHT22;40000;53.848;10.658;2022-08-05T02:48:21;17.70;99.90
25985;DHT22;40000;53.848;10.658;2022-08-05T02:53:24;17.70;99.90
25985;DHT22;40000;53.848;10.658;2022-08-05T02:58:25;17.70;99.90
25985;DHT22;40000;53.848;10.658;2022-08-05T03:03:27;17.70;99.90
25985;DHT22;40000;53.848;10.658;2022-08-05T03:08:29;17.70;99.90
25985;DHT22;40000;53.848;10.658;2022-08-05T03:13:30;17.80;99.90
25985;DHT22;40000;53.848;10.658;2022-08-05T03:18:31;17.80;99.90
25985;DHT22;40000;53.848;10.658;2022-08-05T03:23:33;17.80;99.90
25985;DHT22;40000;53.848;10.658;2022-08-05T03:28:34;17.70;99.90
25985;DHT22;40000;53.848;10.658;2022-08-05T03:33:36;17.50;99.90
25985;DHT22;40000;53.848;10.658;2022-08-05T03:38:40;17.60;99.90
25985;DHT22;40000;53.848;10.658;2022-08-05T03:43:42;17.60;99.90
25985;DHT22;40000;53.848;10.658;2022-08-05T03:48:42;17.40;99.90
25985;DHT22;40000;53.848;10.658;2022-08-05T03:59:08;17.20;99.90
25985;DHT22;40000;53.848;10.658;2022-08-05T04:04:14;17.20;99.90
25985;DHT22;40000;53.848;10.658;2022-08-05T04:09:16;17.20;99.90
25985;DHT22;40000;53.848;10.658;2022-08-05T04:14:18;17.10;99.90
25985;DHT22;40000;53.848;10.658;2022-08-05T04:19:19;17.10;99.90
25985;DHT22;40000;53.848;10.658;2022-08-05T04:24:20;17.10;99.90
25985;DHT22;40000;53.848;10.658;2022-08-05T04:29:21;17.10;99.90
25985;DHT22;40000;53.848;10.658;2022-08-05T04:34:21;17.10;99.90
25985;DHT22;40000;53.848;10.658;2022-08-05T04:39:23;17.00;99.90
25985;DHT22;40000;53.848;10.658;2022-08-05T04:44:23;17.00;99.90
25985;DHT22;40000;53.848;10.658;2022-08-05T04:49:25;16.90;99.90
25985;DHT22;40000;53.848;10.658;2022-08-05T04:54:26;16.90;99.90
25985;DHT22;40000;53.848;10.658;2022-08-05T04:59:27;16.90;99.90
25985;DHT22;40000;53.848;10.658;2022-08-05T05:04:28;17.00;99.90
25985;DHT22;40000;53.848;10.658;2022-08-05T05:09:28;16.90;99.90
25985;DHT22;40000;53.848;10.658;2022-08-05T05:14:29;16.90;99.90
25985;DHT22;40000;53.848;10.658;2022-08-05T05:19:30;17.00;99.90
25985;DHT22;40000;53.848;10.658;2022-08-05T05:24:30;17.00;99.90
25985;DHT22;40000;53.848;10.658;2022-08-05T05:29:31;17.10;99.90
25985;DHT22;40000;53.848;10.658;2022-08-05T05:34:32;17.00;99.90
25985;DHT22;40000;53.848;10.658;2022-08-05T05:39:33;17.10;99.90
25985;DHT22;40000;53.848;10.658;2022-08-05T05:44:33;17.20;99.90
25985;DHT22;40000;53.848;10.658;2022-08-05T05:49:34;17.30;99.90
25985;DHT22;40000;53.848;10.658;2022-08-05T05:54:35;17.40;99.90
25985;DHT22;40000;53.848;10.658;2022-08-05T05:59:36;17.60;99.90
25985;DHT22;40000;53.848;10.658;2022-08-05T06:04:36;17.60;99.90
25985;DHT22;40000;53.848;10.658;2022-08-05T06:09:37;17.70;99.90
25985;DHT22;40000;53.848;10.658;2022-08-05T06:14:38;17.60;99.90
25985;DHT22;40000;53.848;10.658;2022-08-05T06:19:39;17.60;99.90
25985;DHT22;40000;53.848;10.658;2022-08-05T06:24:43;17.60;99.90
25985;DHT22;40000;53.848;10.658;2022-08-05T06:29:43;17.60;99.90
25985;DHT22;40000;53.848;10.658;2022-08-05T06:34:44;17.60;99.90
25985;DHT22;40000;53.848;10.658;2022-08-05T06:39:45;17.60;99.90
25985;DHT22;40000;53.848;10.658;2022-08-05T06:44:46;17.60;99.90
25985;DHT22;40000;53.848;10.658;2022-08-05T06:49:46;17.80;99.90
25985;DHT22;40000;53.848;10.658;2022-08-05T06:54:47;18.00;99.90
25985;DHT22;40000;53.848;10.658;2022-08-05T06:59:48;18.10;99.90
25985;DHT22;40000;53.848;10.658;2022-08-05T07:04:49;18.30;99.90
25985;DHT22;40000;53.848;10.658;2022-08-05T07:09:49;18.30;99.90
25985;DHT22;40000;53.848;10.658;2022-08-05T07:14:50;18.40;99.90
25985;DHT22;40000;53.848;10.658;2022-08-05T07:20:10;18.40;99.90
25985;DHT22;40000;53.848;10.658;2022-08-05T07:25:11;18.70;99.90
25985;DHT22;40000;53.848;10.658;2022-08-05T07:30:11;18.80;99.90
25985;DHT22;40000;53.848;10.658;2022-08-05T07:35:13;18.80;99.90
25985;DHT22;40000;53.848;10.658;2022-08-05T07:40:14;19.00;99.90
25985;DHT22;40000;53.848;10.658;2022-08-05T07:45:15;19.00;99.90
25985;DHT22;40000;53.848;10.658;2022-08-05T07:50:15;19.40;99.90
25985;DHT22;40000;53.848;10.658;2022-08-05T07:55:16;19.70;99.90
25985;DHT22;40000;53.848;10.658;2022-08-05T08:00:17;19.90;99.90
25985;DHT22;40000;53.848;10.658;2022-08-05T08:05:18;19.80;99.90
25985;DHT22;40000;53.848;10.658;2022-08-05T08:10:19;19.90;99.90
25985;DHT22;40000;53.848;10.658;2022-08-05T08:15:19;19.80;99.90
25985;DHT22;40000;53.848;10.658;2022-08-05T08:20:21;19.70;99.90
25985;DHT22;40000;53.848;10.658;2022-08-05T08:25:23;19.50;99.90
25985;DHT22;40000;53.848;10.658;2022-08-05T08:30:24;19.30;99.90
25985;DHT22;40000;53.848;10.658;2022-08-05T08:35:24;19.20;99.90
25985;DHT22;40000;53.848;10.658;2022-08-05T08:40:25;18.90;99.90
25985;DHT22;40000;53.848;10.658;2022-08-05T08:45:27;18.80;99.90
25985;DHT22;40000;53.848;10.658;2022-08-05T08:50:29;18.80;99.90
25985;DHT22;40000;53.848;10.658;2022-08-05T08:55:32;18.80;99.90
25985;DHT22;40000;53.848;10.658;2022-08-05T09:00:34;18.80;99.90
25985;DHT22;40000;53.848;10.658;2022-08-05T09:05:34;19.00;99.90
25985;DHT22;40000;53.848;10.658;2022-08-05T09:10:35;18.80;99.90
25985;DHT22;40000;53.848;10.658;2022-08-05T09:15:37;18.80;99.90
25985;DHT22;40000;53.848;10.658;2022-08-05T09:20:38;18.80;99.90
25985;DHT22;40000;53.848;10.658;2022-08-05T09:25:43;18.90;99.90
25985;DHT22;40000;53.848;10.658;2022-08-05T09:30:56;18.90;99.90
25985;DHT22;40000;53.848;10.658;2022-08-05T09:36:03;18.90;99.90
25985;DHT22;40000;53.848;10.658;2022-08-05T09:41:07;18.80;99.90
25985;DHT22;40000;53.848;10.658;2022-08-05T09:46:29;18.80;99.90
25985;DHT22;40000;53.848;10.658;2022-08-05T09:51:33;18.70;99.90
25985;DHT22;40000;53.848;10.658;2022-08-05T09:56:37;18.60;99.90
25985;DHT22;40000;53.848;10.658;2022-08-05T10:01:42;18.50;99.90
25985;DHT22;40000;53.848;10.658;2022-08-05T10:06:56;18.60;99.90
25985;DHT22;40000;53.848;10.658;2022-08-05T10:12:08;18.50;99.90
25985;DHT22;40000;53.848;10.658;2022-08-05T10:17:14;18.30;99.90
25985;DHT22;40000;53.848;10.658;2022-08-05T10:22:15;18.10;99.90
25985;DHT22;40000;53.848;10.658;2022-08-05T10:27:17;17.90;99.90
25985;DHT22;40000;53.848;10.658;2022-08-05T10:32:18;17.70;99.90
25985;DHT22;40000;53.848;10.658;2022-08-05T10:37:20;17.90;99.90
25985;DHT22;40000;53.848;10.658;2022-08-05T10:42:23;18.00;99.90
25985;DHT22;40000;53.848;10.658;2022-08-05T10:47:31;17.90;99.90
25985;DHT22;40000;53.848;10.658;2022-08-05T10:52:47;17.80;99.90
25985;DHT22;40000;53.848;10.658;2022-08-05T10:58:07;18.10;99.90
25985;DHT22;40000;53.848;10.658;2022-08-05T11:03:10;18.20;99.90
25985;DHT22;40000;53.848;10.658;2022-08-05T11:08:11;18.30;99.90
25985;DHT22;40000;53.848;10.658;2022-08-05T11:13:39;18.30;99.90
25985;DHT22;40000;53.848;10.658;2022-08-05T11:18:40;18.20;99.90
25985;DHT22;40000;53.848;10.658;2022-08-05T11:23:53;18.30;99.90
25985;DHT22;40000;53.848;10.658;2022-08-05T11:28:55;18.40;99.90
25985;DHT22;40000;53.848;10.658;2022-08-05T11:34:05;18.50;99.90
25985;DHT22;40000;53.848;10.658;2022-08-05T11:39:07;18.60;99.90
25985;DHT22;40000;53.848;10.658;2022-08-05T11:44:12;18.60;99.90
25985;DHT22;40000;53.848;10.658;2022-08-05T11:49:17;18.60;99.90
25985;DHT22;40000;53.848;10.658;2022-08-05T11:54:28;18.50;99.90
25985;DHT22;40000;53.848;10.658;2022-08-05T11:59:32;18.30;99.90
25985;DHT22;40000;53.848;10.658;2022-08-05T12:04:41;17.90;99.90
25985;DHT22;40000;53.848;10.658;2022-08-05T12:09:51;17.70;99.90
25985;DHT22;40000;53.848;10.658;2022-08-05T12:14:53;17.30;99.90
25985;DHT22;40000;53.848;10.658;2022-08-05T12:19:55;17.10;99.90
25985;DHT22;40000;53.848;10.658;2022-08-05T12:24:56;17.00;99.90
25985;DHT22;40000;53.848;10.658;2022-08-05T12:30:08;16.90;99.90
25985;DHT22;40000;53.848;10.658;2022-08-05T12:35:11;16.90;99.90
25985;DHT22;40000;53.848;10.658;2022-08-05T12:40:15;17.10;99.90
25985;DHT22;40000;53.848;10.658;2022-08-05T12:45:16;17.50;99.90
25985;DHT22;40000;53.848;10.658;2022-08-05T12:50:18;17.70;99.90
25985;DHT22;40000;53.848;10.658;2022-08-05T12:55:29;17.90;99.90
25985;DHT22;40000;53.848;10.658;2022-08-05T13:00:30;17.80;99.90
25985;DHT22;40000;53.848;10.658;2022-08-05T13:05:34;17.50;99.90
25985;DHT22;40000;53.848;10.658;2022-08-05T13:10:41;17.80;99.90
25985;DHT22;40000;53.848;10.658;2022-08-05T13:15:49;18.20;99.90
25985;DHT22;40000;53.848;10.658;2022-08-05T13:20:50;18.40;99.90
25985;DHT22;40000;53.848;10.658;2022-08-05T13:25:51;18.40;99.90
25985;DHT22;40000;53.848;10.658;2022-08-05T13:30:51;18.60;99.90
25985;DHT22;40000;53.848;10.658;2022-08-05T13:35:52;18.80;99.90
25985;DHT22;40000;53.848;10.658;2022-08-05T13:40:54;18.90;99.90
25985;DHT22;40000;53.848;10.658;2022-08-05T13:45:55;19.20;99.90
25985;DHT22;40000;53.848;10.658;2022-08-05T13:51:04;19.50;99.90
25985;DHT22;40000;53.848;10.658;2022-08-05T13:56:09;20.20;99.90
25985;DHT22;40000;53.848;10.658;2022-08-05T14:01:09;20.50;99.90
25985;DHT22;40000;53.848;10.658;2022-08-05T14:06:10;20.50;99.90
25985;DHT22;40000;53.848;10.658;2022-08-05T14:11:11;20.60;99.90
25985;DHT22;40000;53.848;10.658;2022-08-05T14:16:12;20.60;99.90
25985;DHT22;40000;53.848;10.658;2022-08-05T14:21:12;20.90;99.90
25985;DHT22;40000;53.848;10.658;2022-08-05T14:26:13;21.00;99.90
25985;DHT22;40000;53.848;10.658;2022-08-05T14:31:14;21.00;99.90
25985;DHT22;40000;53.848;10.658;2022-08-05T14:36:15;21.10;99.90
25985;DHT22;40000;53.848;10.658;2022-08-05T14:41:16;21.10;99.90
25985;DHT22;40000;53.848;10.658;2022-08-05T14:46:17;21.30;99.90
25985;DHT22;40000;53.848;10.658;2022-08-05T14:51:18;21.20;99.90
25985;DHT22;40000;53.848;10.658;2022-08-05T14:56:18;21.70;99.90
25985;DHT22;40000;53.848;10.658;2022-08-05T15:01:19;21.70;99.90
25985;DHT22;40000;53.848;10.658;2022-08-05T15:06:20;21.60;99.90
25985;DHT22;40000;53.848;10.658;2022-08-05T15:11:22;21.40;99.90
25985;DHT22;40000;53.848;10.658;2022-08-05T15:16:23;21.40;99.90
25985;DHT22;40000;53.848;10.658;2022-08-05T15:21:23;21.60;99.90
25985;DHT22;40000;53.848;10.658;2022-08-05T15:26:24;21.80;99.90
25985;DHT22;40000;53.848;10.658;2022-08-05T15:31:25;22.10;99.90
25985;DHT22;40000;53.848;10.658;2022-08-05T15:36:26;22.20;99.90
25985;DHT22;40000;53.848;10.658;2022-08-05T15:41:26;22.30;99.90
25985;DHT22;40000;53.848;10.658;2022-08-05T15:46:27;22.90;99.90
25985;DHT22;40000;53.848;10.658;2022-08-05T15:51:29;23.50;99.90
25985;DHT22;40000;53.848;10.658;2022-08-05T15:56:30;23.40;99.90
25985;DHT22;40000;53.848;10.658;2022-08-05T16:01:31;22.60;99.90
25985;DHT22;40000;53.848;10.658;2022-08-05T16:06:31;21.90;99.90
25985;DHT22;40000;53.848;10.658;2022-08-05T16:11:35;21.40;99.90
25985;DHT22;40000;53.848;10.658;2022-08-05T16:16:36;21.10;99.90
25985;DHT22;40000;53.848;10.658;2022-08-05T16:21:37;20.70;99.90
25985;DHT22;40000;53.848;10.658;2022-08-05T16:26:56;20.40;99.90
25985;DHT22;40000;53.848;10.658;2022-08-05T16:31:58;20.10;99.90
25985;DHT22;40000;53.848;10.658;2022-08-05T16:36:59;19.80;99.90
25985;DHT22;40000;53.848;10.658;2022-08-05T16:41:59;19.60;99.90
25985;DHT22;40000;53.848;10.658;2022-08-05T16:47:00;19.50;99.90
25985;DHT22;40000;53.848;10.658;2022-08-05T16:52:02;19.60;99.90
25985;DHT22;40000;53.848;10.658;2022-08-05T16:57:03;19.90;99.90
25985;DHT22;40000;53.848;10.658;2022-08-05T17:02:04;20.00;99.90
25985;DHT22;40000;53.848;10.658;2022-08-05T17:07:05;21.20;99.90
25985;DHT22;40000;53.848;10.658;2022-08-05T17:12:06;23.80;99.90
25985;DHT22;40000;53.848;10.658;2022-08-05T17:17:07;26.10;99.90
25985;DHT22;40000;53.848;10.658;2022-08-05T17:22:08;26.90;99.90
25985;DHT22;40000;53.848;10.658;2022-08-05T17:27:08;28.60;99.90
25985;DHT22;40000;53.848;10.658;2022-08-05T17:32:10;29.50;99.90
25985;DHT22;40000;53.848;10.658;2022-08-05T17:37:11;28.00;99.90
25985;DHT22;40000;53.848;10.658;2022-08-05T17:42:12;24.20;99.90
25985;DHT22;40000;53.848;10.658;2022-08-05T17:47:13;23.00;99.90
25985;DHT22;40000;53.848;10.658;2022-08-05T17:52:14;22.80;99.90
25985;DHT22;40000;53.848;10.658;2022-08-05T17:57:15;24.00;99.90
25985;DHT22;40000;53.848;10.658;2022-08-05T18:02:16;26.30;99.90
25985;DHT22;40000;53.848;10.658;2022-08-05T18:07:16;27.30;99.90
25985;DHT22;40000;53.848;10.658;2022-08-05T18:12:17;25.10;99.90
25985;DHT22;40000;53.848;10.658;2022-08-05T18:17:18;24.60;99.90
25985;DHT22;40000;53.848;10.658;2022-08-05T18:22:19;24.90;99.90
25985;DHT22;40000;53.848;10.658;2022-08-05T18:27:19;22.70;99.90
25985;DHT22;40000;53.848;10.658;2022-08-05T18:32:21;20.30;99.90
25985;DHT22;40000;53.848;10.658;2022-08-05T18:37:23;18.90;99.90
25985;DHT22;40000;53.848;10.658;2022-08-05T18:42:23;18.20;99.90
25985;DHT22;40000;53.848;10.658;2022-08-05T18:47:24;17.80;99.90
25985;DHT22;40000;53.848;10.658;2022-08-05T18:52:25;17.50;99.90
25985;DHT22;40000;53.848;10.658;2022-08-05T18:57:32;17.30;99.90
25985;DHT22;40000;53.848;10.658;2022-08-05T19:02:33;17.00;99.90
25985;DHT22;40000;53.848;10.658;2022-08-05T19:07:34;16.70;99.90
25985;DHT22;40000;53.848;10.658;2022-08-05T19:12:35;16.50;99.90
25985;DHT22;40000;53.848;10.658;2022-08-05T19:17:38;16.20;99.90
25985;DHT22;40000;53.848;10.658;2022-08-05T19:22:38;16.00;99.90
25985;DHT22;40000;53.848;10.658;2022-08-05T19:27:39;15.80;99.90
25985;DHT22;40000;53.848;10.658;2022-08-05T19:32:40;15.70;99.90
25985;DHT22;40000;53.848;10.658;2022-08-05T19:37:41;15.50;99.90
25985;DHT22;40000;53.848;10.658;2022-08-05T19:42:42;15.30;99.90
25985;DHT22;40000;53.848;10.658;2022-08-05T19:47:43;15.00;99.90
25985;DHT22;40000;53.848;10.658;2022-08-05T19:52:44;14.80;99.90
25985;DHT22;40000;53.848;10.658;2022-08-05T19:57:44;14.70;99.90
25985;DHT22;40000;53.848;10.658;2022-08-05T20:02:45;14.60;99.90
25985;DHT22;40000;53.848;10.658;2022-08-05T20:07:46;14.60;99.90
25985;DHT22;40000;53.848;10.658;2022-08-05T20:12:47;14.50;99.90
25985;DHT22;40000;53.848;10.658;2022-08-05T20:17:47;14.30;99.90
25985;DHT22;40000;53.848;10.658;2022-08-05T20:22:49;14.30;99.90
25985;DHT22;40000;53.848;10.658;2022-08-05T20:27:49;14.20;99.90
25985;DHT22;40000;53.848;10.658;2022-08-05T20:32:50;14.00;99.90
25985;DHT22;40000;53.848;10.658;2022-08-05T20:37:54;13.90;99.90
25985;DHT22;40000;53.848;10.658;2022-08-05T20:42:54;13.70;99.90
25985;DHT22;40000;53.848;10.658;2022-08-05T20:47:57;13.70;99.90
25985;DHT22;40000;53.848;10.658;2022-08-05T20:52:58;13.60;99.90
25985;DHT22;40000;53.848;10.658;2022-08-05T20:57:59;13.50;99.90
25985;DHT22;40000;53.848;10.658;2022-08-05T21:03:00;13.40;99.90
25985;DHT22;40000;53.848;10.658;2022-08-05T21:08:04;13.40;99.90
25985;DHT22;40000;53.848;10.658;2022-08-05T21:13:04;13.30;99.90
25985;DHT22;40000;53.848;10.658;2022-08-05T21:18:05;13.20;99.90
25985;DHT22;40000;53.848;10.658;2022-08-05T21:23:06;13.00;99.90
25985;DHT22;40000;53.848;10.658;2022-08-05T21:28:07;12.90;99.90
25985;DHT22;40000;53.848;10.658;2022-08-05T21:33:07;12.80;99.90
25985;DHT22;40000;53.848;10.658;2022-08-05T21:38:11;12.80;99.90
25985;DHT22;40000;53.848;10.658;2022-08-05T21:43:12;12.60;99.90
25985;DHT22;40000;53.848;10.658;2022-08-05T21:48:14;12.50;99.90
25985;DHT22;40000;53.848;10.658;2022-08-05T21:53:15;12.30;99.90
25985;DHT22;40000;53.848;10.658;2022-08-05T21:58:15;12.20;99.90
25985;DHT22;40000;53.848;10.658;2022-08-05T22:03:16;12.20;99.90
25985;DHT22;40000;53.848;10.658;2022-08-05T22:08:17;12.20;99.90
25985;DHT22;40000;53.848;10.658;2022-08-05T22:13:18;12.10;99.90
25985;DHT22;40000;53.848;10.658;2022-08-05T22:18:19;12.10;99.90
25985;DHT22;40000;53.848;10.658;2022-08-05T22:23:20;12.10;99.90
25985;DHT22;40000;53.848;10.658;2022-08-05T22:28:39;12.00;99.90
25985;DHT22;40000;53.848;10.658;2022-08-05T22:33:40;11.90;99.90
25985;DHT22;40000;53.848;10.658;2022-08-05T22:38:41;11.90;99.90
25985;DHT22;40000;53.848;10.658;2022-08-05T22:43:45;11.80;99.90
25985;DHT22;40000;53.848;10.658;2022-08-05T22:48:46;11.80;99.90
25985;DHT22;40000;53.848;10.658;2022-08-05T22:53:47;11.80;99.90
25985;DHT22;40000;53.848;10.658;2022-08-05T22:58:47;11.80;99.90
25985;DHT22;40000;53.848;10.658;2022-08-05T23:03:48;11.70;99.90
25985;DHT22;40000;53.848;10.658;2022-08-05T23:08:50;11.70;99.90
25985;DHT22;40000;53.848;10.658;2022-08-05T23:13:52;11.70;99.90
25985;DHT22;40000;53.848;10.658;2022-08-05T23:18:53;11.60;99.90
25985;DHT22;40000;53.848;10.658;2022-08-05T23:23:53;11.60;99.90
25985;DHT22;40000;53.848;10.658;2022-08-05T23:28:54;11.50;99.90
25985;DHT22;40000;53.848;10.658;2022-08-05T23:33:55;11.50;99.90
25985;DHT22;40000;53.848;10.658;2022-08-05T23:38:55;11.50;99.90
25985;DHT22;40000;53.848;10.658;2022-08-05T23:43:56;11.40;99.90
25985;DHT22;40000;53.848;10.658;2022-08-05T23:48:57;11.40;99.90
25985;DHT22;40000;53.848;10.658;2022-08-05T23:53:58;11.30;99.90
25985;DHT22;40000;53.848;10.658;2022-08-05T23:58:58;11.30;99.90
